sensor_id;sensor_type;location;lat;lon;timestamp;temperature;humidity
8487;DHT22;4280;50.534;8.708;2022-08-18T00:01:20;20.20;32.10
8487;DHT22;4280;50.534;8.708;2022-08-18T00:03:54;20.00;32.00
8487;DHT22;4280;50.534;8.708;2022-08-18T00:06:26;19.90;31.80
8487;DHT22;4280;50.534;8.708;2022-08-18T00:08:56;19.80;31.50
8487;DHT22;4280;50.534;8.708;2022-08-18T00:11:28;19.60;31.50
8487;DHT22;4280;50.534;8.708;2022-08-18T00:14:00;19.50;31.50
8487;DHT22;4280;50.534;8.708;2022-08-18T00:16:30;19.40;31.40
8487;DHT22;4280;50.534;8.708;2022-08-18T00:19:03;19.40;33.40
8487;DHT22;4280;50.534;8.708;2022-08-18T00:21:35;19.40;34.60
8487;DHT22;4280;50.534;8.708;2022-08-18T00:24:05;19.40;36.50
8487;DHT22;4280;50.534;8.708;2022-08-18T00:26:35;19.40;34.30
8487;DHT22;4280;50.534;8.708;2022-08-18T00:29:05;19.40;35.50
8487;DHT22;4280;50.534;8.708;2022-08-18T00:31:35;19.30;37.40
8487;DHT22;4280;50.534;8.708;2022-08-18T00:34:07;19.40;37.70
8487;DHT22;4280;50.534;8.708;2022-08-18T00:36:37;19.40;37.80
8487;DHT22;4280;50.534;8.708;2022-08-18T00:39:07;19.40;38.80
8487;DHT22;4280;50.534;8.708;2022-08-18T00:41:37;19.40;39.10
8487;DHT22;4280;50.534;8.708;2022-08-18T00:44:07;19.30;40.00
8487;DHT22;4280;50.534;8.708;2022-08-18T00:46:38;19.40;39.40
8487;DHT22;4280;50.534;8.708;2022-08-18T00:49:10;19.40;40.90
8487;DHT22;4280;50.534;8.708;2022-08-18T00:51:44;19.30;41.80
8487;DHT22;4280;50.534;8.708;2022-08-18T00:54:17;19.20;41.70
8487;DHT22;4280;50.534;8.708;2022-08-18T00:56:50;19.20;43.50
8487;DHT22;4280;50.534;8.708;2022-08-18T00:59:24;19.20;43.80
8487;DHT22;4280;50.534;8.708;2022-08-18T01:01:57;19.20;43.40
8487;DHT22;4280;50.534;8.708;2022-08-18T01:04:33;19.10;43.20
8487;DHT22;4280;50.534;8.708;2022-08-18T01:07:08;18.90;43.50
8487;DHT22;4280;50.534;8.708;2022-08-18T01:09:39;18.70;47.20
8487;DHT22;4280;50.534;8.708;2022-08-18T01:12:09;18.50;49.90
8487;DHT22;4280;50.534;8.708;2022-08-18T01:14:39;18.40;52.70
8487;DHT22;4280;50.534;8.708;2022-08-18T01:17:09;18.40;55.10
8487;DHT22;4280;50.534;8.708;2022-08-18T01:19:54;18.50;55.40
8487;DHT22;4280;50.534;8.708;2022-08-18T01:22:37;18.60;55.50
8487;DHT22;4280;50.534;8.708;2022-08-18T01:28:04;18.70;55.60
8487;DHT22;4280;50.534;8.708;2022-08-18T01:30:43;18.70;55.50
8487;DHT22;4280;50.534;8.708;2022-08-18T01:33:16;18.70;55.50
8487;DHT22;4280;50.534;8.708;2022-08-18T01:35:47;18.60;55.50
8487;DHT22;4280;50.534;8.708;2022-08-18T01:38:20;18.70;59.90
8487;DHT22;4280;50.534;8.708;2022-08-18T01:40:51;18.70;60.00
8487;DHT22;4280;50.534;8.708;2022-08-18T01:43:22;18.70;60.40
8487;DHT22;4280;50.534;8.708;2022-08-18T01:45:52;18.60;58.60
8487;DHT22;4280;50.534;8.708;2022-08-18T01:48:26;18.50;58.70
8487;DHT22;4280;50.534;8.708;2022-08-18T01:50:58;18.40;60.00
8487;DHT22;4280;50.534;8.708;2022-08-18T01:53:31;18.40;60.90
8487;DHT22;4280;50.534;8.708;2022-08-18T01:56:02;18.40;61.50
8487;DHT22;4280;50.534;8.708;2022-08-18T01:58:33;18.60;62.00
8487;DHT22;4280;50.534;8.708;2022-08-18T02:01:03;18.80;61.40
8487;DHT22;4280;50.534;8.708;2022-08-18T02:03:35;18.90;60.00
8487;DHT22;4280;50.534;8.708;2022-08-18T02:06:07;18.80;59.20
8487;DHT22;4280;50.534;8.708;2022-08-18T02:08:41;18.70;60.70
8487;DHT22;4280;50.534;8.708;2022-08-18T02:11:11;18.50;61.30
8487;DHT22;4280;50.534;8.708;2022-08-18T02:13:42;18.50;61.60
8487;DHT22;4280;50.534;8.708;2022-08-18T02:16:11;18.50;63.20
8487;DHT22;4280;50.534;8.708;2022-08-18T02:18:42;18.50;63.60
8487;DHT22;4280;50.534;8.708;2022-08-18T02:21:14;18.50;62.30
8487;DHT22;4280;50.534;8.708;2022-08-18T02:23:48;18.70;65.80
8487;DHT22;4280;50.534;8.708;2022-08-18T02:26:18;18.90;61.60
8487;DHT22;4280;50.534;8.708;2022-08-18T02:28:49;19.00;60.10
8487;DHT22;4280;50.534;8.708;2022-08-18T02:31:20;19.10;57.90
8487;DHT22;4280;50.534;8.708;2022-08-18T02:33:51;19.10;56.00
8487;DHT22;4280;50.534;8.708;2022-08-18T02:36:22;19.10;56.00
8487;DHT22;4280;50.534;8.708;2022-08-18T02:38:55;19.10;55.90
8487;DHT22;4280;50.534;8.708;2022-08-18T02:41:26;18.90;55.80
8487;DHT22;4280;50.534;8.708;2022-08-18T02:43:57;18.90;57.40
8487;DHT22;4280;50.534;8.708;2022-08-18T02:46:27;18.70;60.50
8487;DHT22;4280;50.534;8.708;2022-08-18T02:48:57;18.60;63.00
8487;DHT22;4280;50.534;8.708;2022-08-18T02:51:28;18.50;62.80
8487;DHT22;4280;50.534;8.708;2022-08-18T02:54:00;18.30;65.70
8487;DHT22;4280;50.534;8.708;2022-08-18T02:56:35;18.40;66.80
8487;DHT22;4280;50.534;8.708;2022-08-18T02:59:05;18.40;66.80
8487;DHT22;4280;50.534;8.708;2022-08-18T03:01:39;18.60;66.80
8487;DHT22;4280;50.534;8.708;2022-08-18T03:04:12;18.70;64.50
8487;DHT22;4280;50.534;8.708;2022-08-18T03:06:46;18.80;61.60
8487;DHT22;4280;50.534;8.708;2022-08-18T03:09:19;18.80;61.50
8487;DHT22;4280;50.534;8.708;2022-08-18T03:11:49;18.90;61.50
8487;DHT22;4280;50.534;8.708;2022-08-18T03:14:20;18.90;60.20
8487;DHT22;4280;50.534;8.708;2022-08-18T03:16:50;19.00;58.50
8487;DHT22;4280;50.534;8.708;2022-08-18T03:19:21;19.10;58.80
8487;DHT22;4280;50.534;8.708;2022-08-18T03:21:51;19.10;59.10
8487;DHT22;4280;50.534;8.708;2022-08-18T03:24:25;19.10;59.50
8487;DHT22;4280;50.534;8.708;2022-08-18T03:26:55;19.00;60.80
8487;DHT22;4280;50.534;8.708;2022-08-18T03:29:25;18.90;61.80
8487;DHT22;4280;50.534;8.708;2022-08-18T03:31:57;18.90;63.90
8487;DHT22;4280;50.534;8.708;2022-08-18T03:34:28;18.80;67.20
8487;DHT22;4280;50.534;8.708;2022-08-18T03:36:58;18.70;67.10
8487;DHT22;4280;50.534;8.708;2022-08-18T03:39:31;18.70;67.00
8487;DHT22;4280;50.534;8.708;2022-08-18T03:42:00;18.80;67.10
8487;DHT22;4280;50.534;8.708;2022-08-18T03:44:32;18.70;67.00
8487;DHT22;4280;50.534;8.708;2022-08-18T03:47:06;18.60;67.60
8487;DHT22;4280;50.534;8.708;2022-08-18T03:49:36;18.60;70.60
8487;DHT22;4280;50.534;8.708;2022-08-18T03:52:07;18.50;71.30
8487;DHT22;4280;50.534;8.708;2022-08-18T03:54:41;18.40;73.00
8487;DHT22;4280;50.534;8.708;2022-08-18T03:57:11;18.30;75.00
8487;DHT22;4280;50.534;8.708;2022-08-18T03:59:41;18.30;71.70
8487;DHT22;4280;50.534;8.708;2022-08-18T04:02:11;18.30;72.00
8487;DHT22;4280;50.534;8.708;2022-08-18T04:04:41;18.30;72.30
8487;DHT22;4280;50.534;8.708;2022-08-18T04:07:11;18.30;73.10
8487;DHT22;4280;50.534;8.708;2022-08-18T04:09:45;18.30;74.70
8487;DHT22;4280;50.534;8.708;2022-08-18T04:12:15;18.20;77.60
8487;DHT22;4280;50.534;8.708;2022-08-18T04:14:47;18.30;73.60
8487;DHT22;4280;50.534;8.708;2022-08-18T04:17:19;18.40;72.40
8487;DHT22;4280;50.534;8.708;2022-08-18T04:19:52;18.40;72.40
8487;DHT22;4280;50.534;8.708;2022-08-18T04:22:23;18.40;72.20
8487;DHT22;4280;50.534;8.708;2022-08-18T04:24:55;18.40;72.30
8487;DHT22;4280;50.534;8.708;2022-08-18T04:27:27;18.40;71.80
8487;DHT22;4280;50.534;8.708;2022-08-18T04:29:57;18.40;71.20
8487;DHT22;4280;50.534;8.708;2022-08-18T04:32:28;18.40;71.40
8487;DHT22;4280;50.534;8.708;2022-08-18T04:34:59;18.50;71.20
8487;DHT22;4280;50.534;8.708;2022-08-18T04:37:29;18.50;71.10
8487;DHT22;4280;50.534;8.708;2022-08-18T04:40:02;18.60;71.00
8487;DHT22;4280;50.534;8.708;2022-08-18T04:42:33;18.60;70.40
8487;DHT22;4280;50.534;8.708;2022-08-18T04:45:03;18.80;67.20
8487;DHT22;4280;50.534;8.708;2022-08-18T04:47:34;18.80;67.80
8487;DHT22;4280;50.534;8.708;2022-08-18T04:50:07;18.90;67.30
8487;DHT22;4280;50.534;8.708;2022-08-18T04:52:38;19.00;67.30
8487;DHT22;4280;50.534;8.708;2022-08-18T04:55:23;18.90;67.30
8487;DHT22;4280;50.534;8.708;2022-08-18T04:57:54;18.90;67.30
8487;DHT22;4280;50.534;8.708;2022-08-18T05:00:25;18.90;67.30
8487;DHT22;4280;50.534;8.708;2022-08-18T05:02:55;19.00;67.30
8487;DHT22;4280;50.534;8.708;2022-08-18T05:05:26;19.10;65.00
8487;DHT22;4280;50.534;8.708;2022-08-18T05:07:55;19.30;64.00
8487;DHT22;4280;50.534;8.708;2022-08-18T05:10:28;19.40;62.70
8487;DHT22;4280;50.534;8.708;2022-08-18T05:12:58;19.40;64.00
8487;DHT22;4280;50.534;8.708;2022-08-18T05:15:28;19.50;60.30
8487;DHT22;4280;50.534;8.708;2022-08-18T05:18:07;19.60;59.10
8487;DHT22;4280;50.534;8.708;2022-08-18T05:20:38;19.60;58.90
8487;DHT22;4280;50.534;8.708;2022-08-18T05:23:09;19.50;64.90
8487;DHT22;4280;50.534;8.708;2022-08-18T05:25:41;19.50;67.80
8487;DHT22;4280;50.534;8.708;2022-08-18T05:28:11;19.30;67.60
8487;DHT22;4280;50.534;8.708;2022-08-18T05:30:41;19.40;67.80
8487;DHT22;4280;50.534;8.708;2022-08-18T05:33:11;19.20;69.50
8487;DHT22;4280;50.534;8.708;2022-08-18T05:35:42;19.10;70.20
8487;DHT22;4280;50.534;8.708;2022-08-18T05:38:18;19.10;68.90
8487;DHT22;4280;50.534;8.708;2022-08-18T05:40:58;19.10;69.70
8487;DHT22;4280;50.534;8.708;2022-08-18T05:43:32;19.20;68.00
8487;DHT22;4280;50.534;8.708;2022-08-18T05:46:02;19.20;72.20
8487;DHT22;4280;50.534;8.708;2022-08-18T05:48:34;19.20;73.50
8487;DHT22;4280;50.534;8.708;2022-08-18T05:51:09;19.40;67.60
8487;DHT22;4280;50.534;8.708;2022-08-18T05:53:42;19.60;61.80
8487;DHT22;4280;50.534;8.708;2022-08-18T05:56:29;19.70;59.10
8487;DHT22;4280;50.534;8.708;2022-08-18T05:59:16;19.80;58.30
8487;DHT22;4280;50.534;8.708;2022-08-18T06:01:50;19.90;56.70
8487;DHT22;4280;50.534;8.708;2022-08-18T06:07:15;19.90;56.70
8487;DHT22;4280;50.534;8.708;2022-08-18T06:09:47;19.90;56.70
8487;DHT22;4280;50.534;8.708;2022-08-18T06:12:23;19.80;56.60
8487;DHT22;4280;50.534;8.708;2022-08-18T06:14:58;19.90;56.70
8487;DHT22;4280;50.534;8.708;2022-08-18T06:17:48;19.90;56.70
8487;DHT22;4280;50.534;8.708;2022-08-18T06:20:42;20.00;56.80
8487;DHT22;4280;50.534;8.708;2022-08-18T06:23:21;20.10;56.80
8487;DHT22;4280;50.534;8.708;2022-08-18T06:26:02;20.20;54.90
8487;DHT22;4280;50.534;8.708;2022-08-18T06:28:47;20.30;53.70
8487;DHT22;4280;50.534;8.708;2022-08-18T06:31:27;20.30;52.70
8487;DHT22;4280;50.534;8.708;2022-08-18T06:34:02;20.30;55.90
8487;DHT22;4280;50.534;8.708;2022-08-18T06:36:38;20.30;55.30
8487;DHT22;4280;50.534;8.708;2022-08-18T06:39:15;20.20;54.80
8487;DHT22;4280;50.534;8.708;2022-08-18T06:41:49;20.30;57.00
8487;DHT22;4280;50.534;8.708;2022-08-18T06:44:24;20.40;58.80
8487;DHT22;4280;50.534;8.708;2022-08-18T06:47:00;20.40;57.10
8487;DHT22;4280;50.534;8.708;2022-08-18T06:49:36;20.50;57.20
8487;DHT22;4280;50.534;8.708;2022-08-18T06:52:19;20.60;53.10
8487;DHT22;4280;50.534;8.708;2022-08-18T06:54:54;20.80;52.90
8487;DHT22;4280;50.534;8.708;2022-08-18T06:57:27;20.80;50.60
8487;DHT22;4280;50.534;8.708;2022-08-18T07:00:04;20.70;49.50
8487;DHT22;4280;50.534;8.708;2022-08-18T07:02:47;20.80;47.00
8487;DHT22;4280;50.534;8.708;2022-08-18T07:05:21;20.80;47.80
8487;DHT22;4280;50.534;8.708;2022-08-18T07:08:02;20.70;48.20
8487;DHT22;4280;50.534;8.708;2022-08-18T07:10:38;20.60;48.00
8487;DHT22;4280;50.534;8.708;2022-08-18T07:13:16;20.60;50.50
8487;DHT22;4280;50.534;8.708;2022-08-18T07:15:51;20.50;52.80
8487;DHT22;4280;50.534;8.708;2022-08-18T07:18:23;20.50;54.30
8487;DHT22;4280;50.534;8.708;2022-08-18T07:20:56;20.60;52.50
8487;DHT22;4280;50.534;8.708;2022-08-18T07:23:29;20.60;51.70
8487;DHT22;4280;50.534;8.708;2022-08-18T07:26:02;20.60;51.40
8487;DHT22;4280;50.534;8.708;2022-08-18T07:28:36;20.60;52.60
8487;DHT22;4280;50.534;8.708;2022-08-18T07:31:14;20.50;53.60
8487;DHT22;4280;50.534;8.708;2022-08-18T07:33:52;20.50;52.40
8487;DHT22;4280;50.534;8.708;2022-08-18T07:36:26;20.60;51.60
8487;DHT22;4280;50.534;8.708;2022-08-18T07:39:00;20.60;51.50
8487;DHT22;4280;50.534;8.708;2022-08-18T07:41:33;20.70;51.40
8487;DHT22;4280;50.534;8.708;2022-08-18T07:44:10;20.70;49.60
8487;DHT22;4280;50.534;8.708;2022-08-18T07:46:50;20.60;50.20
8487;DHT22;4280;50.534;8.708;2022-08-18T07:49:31;20.70;51.00
8487;DHT22;4280;50.534;8.708;2022-08-18T07:52:03;20.60;51.10
8487;DHT22;4280;50.534;8.708;2022-08-18T07:54:41;20.70;50.80
8487;DHT22;4280;50.534;8.708;2022-08-18T07:57:19;20.80;50.70
8487;DHT22;4280;50.534;8.708;2022-08-18T08:00:00;20.80;48.80
8487;DHT22;4280;50.534;8.708;2022-08-18T08:02:43;20.90;50.50
8487;DHT22;4280;50.534;8.708;2022-08-18T08:05:20;20.80;50.10
8487;DHT22;4280;50.534;8.708;2022-08-18T08:08:01;20.80;49.20
8487;DHT22;4280;50.534;8.708;2022-08-18T08:10:38;20.90;48.70
8487;DHT22;4280;50.534;8.708;2022-08-18T08:28:38;20.80;50.00
8487;DHT22;4280;50.534;8.708;2022-08-18T08:31:12;21.00;46.70
8487;DHT22;4280;50.534;8.708;2022-08-18T08:34:02;21.10;47.80
8487;DHT22;4280;50.534;8.708;2022-08-18T08:36:37;21.20;46.00
8487;DHT22;4280;50.534;8.708;2022-08-18T08:39:11;21.20;46.30
8487;DHT22;4280;50.534;8.708;2022-08-18T08:41:46;21.30;47.60
8487;DHT22;4280;50.534;8.708;2022-08-18T08:44:25;21.20;45.80
8487;DHT22;4280;50.534;8.708;2022-08-18T08:46:59;21.30;52.00
8487;DHT22;4280;50.534;8.708;2022-08-18T08:49:34;21.30;53.00
8487;DHT22;4280;50.534;8.708;2022-08-18T08:52:08;21.30;54.50
8487;DHT22;4280;50.534;8.708;2022-08-18T08:54:45;21.30;55.20
8487;DHT22;4280;50.534;8.708;2022-08-18T08:57:18;21.10;55.70
8487;DHT22;4280;50.534;8.708;2022-08-18T08:59:52;21.00;62.20
8487;DHT22;4280;50.534;8.708;2022-08-18T09:02:31;21.00;58.90
8487;DHT22;4280;50.534;8.708;2022-08-18T09:05:13;21.00;69.00
8487;DHT22;4280;50.534;8.708;2022-08-18T09:07:58;21.10;69.20
8487;DHT22;4280;50.534;8.708;2022-08-18T09:16:54;21.40;68.60
8487;DHT22;4280;50.534;8.708;2022-08-18T09:19:34;21.70;69.90
8487;DHT22;4280;50.534;8.708;2022-08-18T09:22:28;21.90;60.00
8487;DHT22;4280;50.534;8.708;2022-08-18T09:25:07;22.20;58.80
8487;DHT22;4280;50.534;8.708;2022-08-18T09:27:40;22.30;56.50
8487;DHT22;4280;50.534;8.708;2022-08-18T09:30:40;22.40;49.60
8487;DHT22;4280;50.534;8.708;2022-08-18T09:33:23;22.50;49.70
8487;DHT22;4280;50.534;8.708;2022-08-18T09:36:20;22.60;51.70
8487;DHT22;4280;50.534;8.708;2022-08-18T09:38:57;22.80;47.20
8487;DHT22;4280;50.534;8.708;2022-08-18T09:41:45;22.80;50.10
8487;DHT22;4280;50.534;8.708;2022-08-18T09:53:32;23.10;40.00
8487;DHT22;4280;50.534;8.708;2022-08-18T09:56:04;23.20;39.00
8487;DHT22;4280;50.534;8.708;2022-08-18T09:58:48;23.30;35.00
8487;DHT22;4280;50.534;8.708;2022-08-18T10:01:24;23.50;31.10
8487;DHT22;4280;50.534;8.708;2022-08-18T10:07:16;23.40;29.00
8487;DHT22;4280;50.534;8.708;2022-08-18T10:09:51;23.40;29.70
8487;DHT22;4280;50.534;8.708;2022-08-18T10:12:31;23.60;31.70
8487;DHT22;4280;50.534;8.708;2022-08-18T10:18:12;23.20;27.30
8487;DHT22;4280;50.534;8.708;2022-08-18T10:20:53;23.40;26.10
8487;DHT22;4280;50.534;8.708;2022-08-18T10:26:56;23.60;27.00
8487;DHT22;4280;50.534;8.708;2022-08-18T10:32:20;24.50;23.30
8487;DHT22;4280;50.534;8.708;2022-08-18T10:34:53;24.60;19.70
8487;DHT22;4280;50.534;8.708;2022-08-18T10:37:24;24.40;19.50
8487;DHT22;4280;50.534;8.708;2022-08-18T10:39:59;24.40;19.40
8487;DHT22;4280;50.534;8.708;2022-08-18T10:42:32;24.00;19.70
8487;DHT22;4280;50.534;8.708;2022-08-18T10:45:05;23.90;20.40
8487;DHT22;4280;50.534;8.708;2022-08-18T10:47:38;23.70;23.30
8487;DHT22;4280;50.534;8.708;2022-08-18T10:50:19;23.90;22.10
8487;DHT22;4280;50.534;8.708;2022-08-18T10:52:56;24.20;20.10
8487;DHT22;4280;50.534;8.708;2022-08-18T10:55:47;24.00;19.10
8487;DHT22;4280;50.534;8.708;2022-08-18T10:58:30;24.20;17.60
8487;DHT22;4280;50.534;8.708;2022-08-18T11:01:24;24.20;15.90
8487;DHT22;4280;50.534;8.708;2022-08-18T11:04:07;24.30;16.50
8487;DHT22;4280;50.534;8.708;2022-08-18T11:06:41;24.60;14.50
8487;DHT22;4280;50.534;8.708;2022-08-18T11:09:17;24.20;15.80
8487;DHT22;4280;50.534;8.708;2022-08-18T11:11:54;23.90;19.00
8487;DHT22;4280;50.534;8.708;2022-08-18T11:17:29;24.10;19.20
8487;DHT22;4280;50.534;8.708;2022-08-18T11:20:05;24.10;19.20
8487;DHT22;4280;50.534;8.708;2022-08-18T11:22:36;24.20;17.30
8487;DHT22;4280;50.534;8.708;2022-08-18T11:25:16;24.60;17.80
8487;DHT22;4280;50.534;8.708;2022-08-18T11:27:51;24.60;16.70
8487;DHT22;4280;50.534;8.708;2022-08-18T11:30:22;24.80;14.40
8487;DHT22;4280;50.534;8.708;2022-08-18T11:32:57;24.90;14.40
8487;DHT22;4280;50.534;8.708;2022-08-18T11:35:28;24.80;14.40
8487;DHT22;4280;50.534;8.708;2022-08-18T11:38:00;24.60;14.20
8487;DHT22;4280;50.534;8.708;2022-08-18T11:40:35;24.50;14.20
8487;DHT22;4280;50.534;8.708;2022-08-18T11:43:31;24.90;13.90
8487;DHT22;4280;50.534;8.708;2022-08-18T11:46:12;25.00;10.50
8487;DHT22;4280;50.534;8.708;2022-08-18T11:48:43;24.50;8.40
8487;DHT22;4280;50.534;8.708;2022-08-18T11:51:16;24.30;8.60
8487;DHT22;4280;50.534;8.708;2022-08-18T11:53:51;24.10;8.70
8487;DHT22;4280;50.534;8.708;2022-08-18T11:56:24;24.00;10.60
8487;DHT22;4280;50.534;8.708;2022-08-18T11:58:59;24.10;13.90
8487;DHT22;4280;50.534;8.708;2022-08-18T12:01:31;24.20;13.40
8487;DHT22;4280;50.534;8.708;2022-08-18T12:04:08;24.00;13.80
8487;DHT22;4280;50.534;8.708;2022-08-18T12:06:54;23.70;14.50
8487;DHT22;4280;50.534;8.708;2022-08-18T12:09:29;23.60;15.00
8487;DHT22;4280;50.534;8.708;2022-08-18T12:12:23;23.80;13.70
8487;DHT22;4280;50.534;8.708;2022-08-18T12:15:00;23.90;13.70
8487;DHT22;4280;50.534;8.708;2022-08-18T12:17:32;24.10;13.90
8487;DHT22;4280;50.534;8.708;2022-08-18T12:20:03;24.60;14.30
8487;DHT22;4280;50.534;8.708;2022-08-18T12:22:35;25.00;10.90
8487;DHT22;4280;50.534;8.708;2022-08-18T12:25:07;25.40;9.20
8487;DHT22;4280;50.534;8.708;2022-08-18T12:27:38;24.90;9.00
8487;DHT22;4280;50.534;8.708;2022-08-18T12:30:11;24.60;10.60
8487;DHT22;4280;50.534;8.708;2022-08-18T12:32:42;24.60;12.60
8487;DHT22;4280;50.534;8.708;2022-08-18T12:35:12;24.60;12.20
8487;DHT22;4280;50.534;8.708;2022-08-18T12:37:43;24.60;12.30
8487;DHT22;4280;50.534;8.708;2022-08-18T12:40:24;24.80;10.80
8487;DHT22;4280;50.534;8.708;2022-08-18T12:42:54;24.90;11.30
8487;DHT22;4280;50.534;8.708;2022-08-18T12:45:26;25.10;9.30
8487;DHT22;4280;50.534;8.708;2022-08-18T12:47:56;25.30;3.80
8487;DHT22;4280;50.534;8.708;2022-08-18T12:50:28;25.20;2.70
8487;DHT22;4280;50.534;8.708;2022-08-18T12:52:59;25.20;3.70
8487;DHT22;4280;50.534;8.708;2022-08-18T12:55:30;25.10;3.80
8487;DHT22;4280;50.534;8.708;2022-08-18T12:58:03;25.10;5.50
8487;DHT22;4280;50.534;8.708;2022-08-18T13:00:36;25.40;3.70
8487;DHT22;4280;50.534;8.708;2022-08-18T13:03:09;25.50;3.90
8487;DHT22;4280;50.534;8.708;2022-08-18T13:05:39;25.50;3.30
8487;DHT22;4280;50.534;8.708;2022-08-18T13:08:12;25.40;3.10
8487;DHT22;4280;50.534;8.708;2022-08-18T13:10:45;25.40;3.80
8487;DHT22;4280;50.534;8.708;2022-08-18T13:13:17;25.50;1.00
8487;DHT22;4280;50.534;8.708;2022-08-18T13:15:50;25.30;1.40
8487;DHT22;4280;50.534;8.708;2022-08-18T13:18:21;25.10;3.50
8487;DHT22;4280;50.534;8.708;2022-08-18T13:20:51;25.20;3.20
8487;DHT22;4280;50.534;8.708;2022-08-18T13:23:21;25.50;1.60
8487;DHT22;4280;50.534;8.708;2022-08-18T13:25:52;25.80;2.50
8487;DHT22;4280;50.534;8.708;2022-08-18T13:28:22;25.60;1.00
8487;DHT22;4280;50.534;8.708;2022-08-18T13:30:55;25.80;1.00
8487;DHT22;4280;50.534;8.708;2022-08-18T13:33:25;26.20;1.00
8487;DHT22;4280;50.534;8.708;2022-08-18T13:35:55;26.30;1.00
8487;DHT22;4280;50.534;8.708;2022-08-18T13:38:25;26.40;1.00
8487;DHT22;4280;50.534;8.708;2022-08-18T13:40:56;26.50;1.00
8487;DHT22;4280;50.534;8.708;2022-08-18T13:43:28;26.70;1.00
8487;DHT22;4280;50.534;8.708;2022-08-18T13:46:03;26.70;1.00
8487;DHT22;4280;50.534;8.708;2022-08-18T13:48:34;26.50;1.00
8487;DHT22;4280;50.534;8.708;2022-08-18T13:51:05;26.60;1.00
8487;DHT22;4280;50.534;8.708;2022-08-18T13:53:37;26.50;1.00
8487;DHT22;4280;50.534;8.708;2022-08-18T13:56:15;26.60;1.00
8487;DHT22;4280;50.534;8.708;2022-08-18T13:58:46;27.00;1.00
8487;DHT22;4280;50.534;8.708;2022-08-18T14:01:19;26.80;1.00
8487;DHT22;4280;50.534;8.708;2022-08-18T14:04:05;26.60;1.00
8487;DHT22;4280;50.534;8.708;2022-08-18T14:06:38;26.90;1.00
8487;DHT22;4280;50.534;8.708;2022-08-18T14:09:08;26.90;1.00
8487;DHT22;4280;50.534;8.708;2022-08-18T14:11:39;26.90;1.00
8487;DHT22;4280;50.534;8.708;2022-08-18T14:14:09;27.00;1.00
8487;DHT22;4280;50.534;8.708;2022-08-18T14:16:42;27.10;1.00
8487;DHT22;4280;50.534;8.708;2022-08-18T14:19:12;27.00;1.00
8487;DHT22;4280;50.534;8.708;2022-08-18T14:21:54;26.70;1.00
8487;DHT22;4280;50.534;8.708;2022-08-18T14:24:37;26.50;1.00
8487;DHT22;4280;50.534;8.708;2022-08-18T14:27:23;26.50;1.00
8487;DHT22;4280;50.534;8.708;2022-08-18T14:29:56;26.50;1.00
8487;DHT22;4280;50.534;8.708;2022-08-18T14:32:29;26.50;1.00
8487;DHT22;4280;50.534;8.708;2022-08-18T14:35:00;26.00;1.00
8487;DHT22;4280;50.534;8.708;2022-08-18T14:37:31;25.70;1.00
8487;DHT22;4280;50.534;8.708;2022-08-18T14:40:01;25.80;1.00
8487;DHT22;4280;50.534;8.708;2022-08-18T14:42:32;26.00;1.00
8487;DHT22;4280;50.534;8.708;2022-08-18T14:45:02;26.00;1.00
8487;DHT22;4280;50.534;8.708;2022-08-18T14:47:44;25.90;1.00
8487;DHT22;4280;50.534;8.708;2022-08-18T14:50:19;25.90;1.00
8487;DHT22;4280;50.534;8.708;2022-08-18T14:52:49;25.80;1.00
8487;DHT22;4280;50.534;8.708;2022-08-18T14:55:20;25.80;1.00
8487;DHT22;4280;50.534;8.708;2022-08-18T14:57:49;25.90;1.00
8487;DHT22;4280;50.534;8.708;2022-08-18T15:00:20;25.80;1.00
8487;DHT22;4280;50.534;8.708;2022-08-18T15:02:52;25.80;1.00
8487;DHT22;4280;50.534;8.708;2022-08-18T15:05:23;25.90;1.00
8487;DHT22;4280;50.534;8.708;2022-08-18T15:07:57;26.00;1.00
8487;DHT22;4280;50.534;8.708;2022-08-18T15:10:29;26.20;1.00
8487;DHT22;4280;50.534;8.708;2022-08-18T15:12:59;26.30;1.00
8487;DHT22;4280;50.534;8.708;2022-08-18T15:15:29;26.20;1.00
8487;DHT22;4280;50.534;8.708;2022-08-18T15:18:02;26.40;1.00
8487;DHT22;4280;50.534;8.708;2022-08-18T15:20:33;26.50;1.00
8487;DHT22;4280;50.534;8.708;2022-08-18T15:23:23;26.50;1.00
8487;DHT22;4280;50.534;8.708;2022-08-18T15:26:05;26.30;1.00
8487;DHT22;4280;50.534;8.708;2022-08-18T17:29:45;24.00;15.80
8487;DHT22;4280;50.534;8.708;2022-08-18T17:32:16;24.00;16.40
8487;DHT22;4280;50.534;8.708;2022-08-18T17:34:50;24.00;18.20
8487;DHT22;4280;50.534;8.708;2022-08-18T17:37:23;23.90;19.00
8487;DHT22;4280;50.534;8.708;2022-08-18T17:39:54;23.90;18.20
8487;DHT22;4280;50.534;8.708;2022-08-18T17:42:28;23.90;18.60
8487;DHT22;4280;50.534;8.708;2022-08-18T17:45:03;23.80;18.00
8487;DHT22;4280;50.534;8.708;2022-08-18T17:47:37;23.60;18.40
8487;DHT22;4280;50.534;8.708;2022-08-18T17:50:17;23.60;19.00
8487;DHT22;4280;50.534;8.708;2022-08-18T17:53:04;23.60;18.80
8487;DHT22;4280;50.534;8.708;2022-08-18T17:55:35;23.60;18.80
8487;DHT22;4280;50.534;8.708;2022-08-18T17:58:09;23.60;20.10
8487;DHT22;4280;50.534;8.708;2022-08-18T18:00:42;23.60;18.80
8487;DHT22;4280;50.534;8.708;2022-08-18T18:03:13;23.50;18.70
8487;DHT22;4280;50.534;8.708;2022-08-18T18:05:46;23.50;18.70
8487;DHT22;4280;50.534;8.708;2022-08-18T18:08:20;23.50;18.50
8487;DHT22;4280;50.534;8.708;2022-08-18T18:10:50;23.40;18.70
8487;DHT22;4280;50.534;8.708;2022-08-18T18:13:30;23.40;18.70
8487;DHT22;4280;50.534;8.708;2022-08-18T18:18:53;23.30;18.50
8487;DHT22;4280;50.534;8.708;2022-08-18T18:21:25;23.30;18.80
8487;DHT22;4280;50.534;8.708;2022-08-18T18:24:09;23.30;18.90
8487;DHT22;4280;50.534;8.708;2022-08-18T18:26:43;23.30;19.00
8487;DHT22;4280;50.534;8.708;2022-08-18T18:29:15;23.20;19.40
8487;DHT22;4280;50.534;8.708;2022-08-18T18:31:56;23.20;19.80
8487;DHT22;4280;50.534;8.708;2022-08-18T18:34:30;23.10;20.20
8487;DHT22;4280;50.534;8.708;2022-08-18T18:37:05;23.00;20.30
8487;DHT22;4280;50.534;8.708;2022-08-18T18:39:53;23.00;20.60
8487;DHT22;4280;50.534;8.708;2022-08-18T18:42:24;22.90;20.00
8487;DHT22;4280;50.534;8.708;2022-08-18T18:44:56;22.90;21.20
8487;DHT22;4280;50.534;8.708;2022-08-18T18:47:35;22.90;21.70
8487;DHT22;4280;50.534;8.708;2022-08-18T18:50:14;22.80;22.10
8487;DHT22;4280;50.534;8.708;2022-08-18T18:52:53;22.80;22.70
8487;DHT22;4280;50.534;8.708;2022-08-18T18:55:28;22.80;22.90
8487;DHT22;4280;50.534;8.708;2022-08-18T18:58:05;22.70;22.70
8487;DHT22;4280;50.534;8.708;2022-08-18T19:00:43;22.60;23.20
8487;DHT22;4280;50.534;8.708;2022-08-18T19:03:18;22.60;23.20
8487;DHT22;4280;50.534;8.708;2022-08-18T19:05:54;22.60;23.20
8487;DHT22;4280;50.534;8.708;2022-08-18T19:08:35;22.60;23.30
8487;DHT22;4280;50.534;8.708;2022-08-18T19:11:09;22.60;22.80
8487;DHT22;4280;50.534;8.708;2022-08-18T19:13:45;22.60;23.30
8487;DHT22;4280;50.534;8.708;2022-08-18T19:16:23;22.60;23.30
8487;DHT22;4280;50.534;8.708;2022-08-18T19:19:00;22.50;23.30
8487;DHT22;4280;50.534;8.708;2022-08-18T19:21:33;22.50;23.20
8487;DHT22;4280;50.534;8.708;2022-08-18T19:24:05;22.40;23.20
8487;DHT22;4280;50.534;8.708;2022-08-18T19:26:41;22.40;23.20
8487;DHT22;4280;50.534;8.708;2022-08-18T19:29:15;22.40;23.20
8487;DHT22;4280;50.534;8.708;2022-08-18T19:31:49;22.30;23.10
8487;DHT22;4280;50.534;8.708;2022-08-18T19:34:28;22.30;23.10
8487;DHT22;4280;50.534;8.708;2022-08-18T19:37:00;22.30;23.10
8487;DHT22;4280;50.534;8.708;2022-08-18T19:39:36;22.30;23.10
8487;DHT22;4280;50.534;8.708;2022-08-18T19:42:10;22.30;23.70
8487;DHT22;4280;50.534;8.708;2022-08-18T19:44:46;22.20;23.00
8487;DHT22;4280;50.534;8.708;2022-08-18T19:47:33;22.20;23.00